sensor_id;sensor_type;location;lat;lon;timestamp;pressure;altitude;pressure_sealevel;temperature;humidity
64025;BME280;50266;57.446;26.936;2023-11-21T00:00:37;99289.61;;;-9.96;100.0
64025;BME280;50266;57.446;26.936;2023-11-21T00:01:37;99289.52;;;-9.95;100.0
64025;BME280;50266;57.446;26.936;2023-11-21T00:02:37;99296.12;;;-9.93;100.0
64025;BME280;50266;57.446;26.936;2023-11-21T00:03:37;99293.81;;;-9.94;100.0
64025;BME280;50266;57.446;26.936;2023-11-21T00:04:37;99292.36;;;-9.95;100.0
64025;BME280;50266;57.446;26.936;2023-11-21T00:05:37;99289.94;;;-9.98;100.0
64025;BME280;50266;57.446;26.936;2023-11-21T00:06:37;99289.98;;;-9.99;100.0
64025;BME280;50266;57.446;26.936;2023-11-21T00:07:37;99292.39;;;-9.99;100.0
64025;BME280;50266;57.446;26.936;2023-11-21T00:08:37;99293.41;;;-9.99;100.0
64025;BME280;50266;57.446;26.936;2023-11-21T00:09:37;99292.09;;;-9.98;100.0
64025;BME280;50266;57.446;26.936;2023-11-21T00:10:37;99292.39;;;-9.99;100.0
64025;BME280;50266;57.446;26.936;2023-11-21T00:11:37;99293.2;;;-9.98;100.0
64025;BME280;50266;57.446;26.936;2023-11-21T00:12:37;99292.14;;;-9.98;100.0
64025;BME280;50266;57.446;26.936;2023-11-21T00:13:37;99286.66;;;-9.96;100.0
64025;BME280;50266;57.446;26.936;2023-11-21T00:14:37;99291.56;;;-9.94;100.0
64025;BME280;50266;57.446;26.936;2023-11-21T00:15:37;99286.33;;;-9.93;100.0
64025;BME280;50266;57.446;26.936;2023-11-21T00:16:37;99293.12;;;-9.93;100.0
64025;BME280;50266;57.446;26.936;2023-11-21T00:17:37;99291.23;;;-9.95;100.0
64025;BME280;50266;57.446;26.936;2023-11-21T00:18:37;99294.92;;;-9.97;100.0
64025;BME280;50266;57.446;26.936;2023-11-21T00:19:37;99295.84;;;-9.97;100.0
64025;BME280;50266;57.446;26.936;2023-11-21T00:20:37;99292.62;;;-9.98;100.0
64025;BME280;50266;57.446;26.936;2023-11-21T00:21:37;99294.62;;;-9.97;100.0
64025;BME280;50266;57.446;26.936;2023-11-21T00:22:37;99292.3;;;-9.95;100.0
64025;BME280;50266;57.446;26.936;2023-11-21T00:23:37;99292.33;;;-9.93;100.0
64025;BME280;50266;57.446;26.936;2023-11-21T00:24:37;99290.55;;;-9.94;100.0
64025;BME280;50266;57.446;26.936;2023-11-21T00:25:37;99294.52;;;-9.93;100.0
64025;BME280;50266;57.446;26.936;2023-11-21T00:26:37;99295.19;;;-9.92;100.0
64025;BME280;50266;57.446;26.936;2023-11-21T00:27:37;99297.77;;;-9.9;100.0
64025;BME280;50266;57.446;26.936;2023-11-21T00:28:37;99296.69;;;-9.87;100.0
64025;BME280;50266;57.446;26.936;2023-11-21T00:29:37;99294.49;;;-9.87;100.0
64025;BME280;50266;57.446;26.936;2023-11-21T00:30:37;99290.86;;;-9.86;100.0
64025;BME280;50266;57.446;26.936;2023-11-21T00:31:37;99291.16;;;-9.84;100.0
64025;BME280;50266;57.446;26.936;2023-11-21T00:32:37;99290.54;;;-9.82;100.0
64025;BME280;50266;57.446;26.936;2023-11-21T00:33:37;99291.16;;;-9.83;100.0
64025;BME280;50266;57.446;26.936;2023-11-21T00:34:37;99289.34;;;-9.84;100.0
64025;BME280;50266;57.446;26.936;2023-11-21T00:35:37;99288.91;;;-9.83;100.0
64025;BME280;50266;57.446;26.936;2023-11-21T00:36:37;99286.5;;;-9.83;100.0
64025;BME280;50266;57.446;26.936;2023-11-21T00:37:37;99287.62;;;-9.84;100.0
64025;BME280;50266;57.446;26.936;2023-11-21T00:38:37;99291.25;;;-9.85;100.0
64025;BME280;50266;57.446;26.936;2023-11-21T00:39:37;99288.0;;;-9.88;100.0
64025;BME280;50266;57.446;26.936;2023-11-21T00:40:37;99289.88;;;-9.88;100.0
64025;BME280;50266;57.446;26.936;2023-11-21T00:41:37;99289.27;;;-9.89;100.0
64025;BME280;50266;57.446;26.936;2023-11-21T00:42:37;99289.95;;;-9.91;100.0
64025;BME280;50266;57.446;26.936;2023-11-21T00:43:37;99283.28;;;-9.93;100.0
64025;BME280;50266;57.446;26.936;2023-11-21T00:44:37;99281.17;;;-9.95;100.0
64025;BME280;50266;57.446;26.936;2023-11-21T00:45:37;99286.83;;;-9.96;100.0
64025;BME280;50266;57.446;26.936;2023-11-21T00:46:37;99287.14;;;-9.96;100.0
64025;BME280;50266;57.446;26.936;2023-11-21T00:47:37;99290.43;;;-9.97;100.0
64025;BME280;50266;57.446;26.936;2023-11-21T00:48:37;99287.69;;;-9.98;100.0
64025;BME280;50266;57.446;26.936;2023-11-21T00:49:37;99286.14;;;-9.98;100.0
64025;BME280;50266;57.446;26.936;2023-11-21T00:50:37;99291.39;;;-9.97;100.0
64025;BME280;50266;57.446;26.936;2023-11-21T00:51:37;99291.23;;;-9.97;100.0
64025;BME280;50266;57.446;26.936;2023-11-21T00:52:37;99292.73;;;-9.97;100.0
64025;BME280;50266;57.446;26.936;2023-11-21T00:53:37;99290.91;;;-9.95;100.0
64025;BME280;50266;57.446;26.936;2023-11-21T00:54:37;99285.53;;;-9.92;100.0
64025;BME280;50266;57.446;26.936;2023-11-21T00:55:37;99290.7;;;-9.9;100.0
64025;BME280;50266;57.446;26.936;2023-11-21T00:56:37;99292.43;;;-9.89;100.0
64025;BME280;50266;57.446;26.936;2023-11-21T00:57:37;99294.62;;;-9.85;100.0
64025;BME280;50266;57.446;26.936;2023-11-21T00:58:37;99292.42;;;-9.86;100.0
64025;BME280;50266;57.446;26.936;2023-11-21T00:59:37;99292.91;;;-9.85;100.0
64025;BME280;50266;57.446;26.936;2023-11-21T01:00:37;99292.8;;;-9.85;100.0
64025;BME280;50266;57.446;26.936;2023-11-21T01:01:37;99296.23;;;-9.85;100.0
64025;BME280;50266;57.446;26.936;2023-11-21T01:02:37;99289.22;;;-9.85;100.0
64025;BME280;50266;57.446;26.936;2023-11-21T01:03:37;99291.84;;;-9.85;100.0
64025;BME280;50266;57.446;26.936;2023-11-21T01:04:37;99288.56;;;-9.86;100.0
64025;BME280;50266;57.446;26.936;2023-11-21T01:05:37;99288.61;;;-9.87;100.0
64025;BME280;50266;57.446;26.936;2023-11-21T01:06:37;99287.83;;;-9.89;100.0
64025;BME280;50266;57.446;26.936;2023-11-21T01:07:37;99285.67;;;-9.91;100.0
64025;BME280;50266;57.446;26.936;2023-11-21T01:08:37;99282.86;;;-9.93;100.0
64025;BME280;50266;57.446;26.936;2023-11-21T01:09:37;99283.17;;;-9.93;100.0
64025;BME280;50266;57.446;26.936;2023-11-21T01:10:38;99279.31;;;-9.93;100.0
64025;BME280;50266;57.446;26.936;2023-11-21T01:11:38;99279.02;;;-9.96;100.0
64025;BME280;50266;57.446;26.936;2023-11-21T01:12:38;99278.27;;;-9.97;100.0
64025;BME280;50266;57.446;26.936;2023-11-21T01:13:38;99280.04;;;-9.98;100.0
64025;BME280;50266;57.446;26.936;2023-11-21T01:14:38;99283.38;;;-10.0;100.0
64025;BME280;50266;57.446;26.936;2023-11-21T01:15:38;99282.23;;;-10.02;100.0
64025;BME280;50266;57.446;26.936;2023-11-21T01:16:38;99283.88;;;-10.03;100.0
64025;BME280;50266;57.446;26.936;2023-11-21T01:17:38;99281.08;;;-10.04;100.0
64025;BME280;50266;57.446;26.936;2023-11-21T01:18:38;99278.35;;;-10.04;100.0
64025;BME280;50266;57.446;26.936;2023-11-21T01:19:38;99279.75;;;-10.03;100.0
64025;BME280;50266;57.446;26.936;2023-11-21T01:20:38;99280.66;;;-10.04;100.0
64025;BME280;50266;57.446;26.936;2023-11-21T01:21:38;99277.52;;;-10.07;100.0
64025;BME280;50266;57.446;26.936;2023-11-21T01:22:38;99283.33;;;-10.08;100.0
64025;BME280;50266;57.446;26.936;2023-11-21T01:23:38;99281.7;;;-10.09;100.0
64025;BME280;50266;57.446;26.936;2023-11-21T01:24:38;99281.05;;;-10.11;100.0
64025;BME280;50266;57.446;26.936;2023-11-21T01:25:38;99282.45;;;-10.13;100.0
64025;BME280;50266;57.446;26.936;2023-11-21T01:26:38;99283.41;;;-10.14;100.0
64025;BME280;50266;57.446;26.936;2023-11-21T01:27:38;99282.93;;;-10.14;100.0
64025;BME280;50266;57.446;26.936;2023-11-21T01:28:38;99283.42;;;-10.13;100.0
64025;BME280;50266;57.446;26.936;2023-11-21T01:29:38;99275.17;;;-10.14;100.0
64025;BME280;50266;57.446;26.936;2023-11-21T01:30:38;99277.09;;;-10.14;100.0
64025;BME280;50266;57.446;26.936;2023-11-21T01:31:38;99281.1;;;-10.14;100.0
64025;BME280;50266;57.446;26.936;2023-11-21T01:32:38;99273.36;;;-10.17;100.0
64025;BME280;50266;57.446;26.936;2023-11-21T01:33:38;99269.41;;;-10.16;100.0
64025;BME280;50266;57.446;26.936;2023-11-21T01:34:38;99267.32;;;-10.16;100.0
64025;BME280;50266;57.446;26.936;2023-11-21T01:35:38;99266.39;;;-10.17;100.0
64025;BME280;50266;57.446;26.936;2023-11-21T01:36:38;99262.82;;;-10.17;100.0
64025;BME280;50266;57.446;26.936;2023-11-21T01:37:38;99263.39;;;-10.19;100.0
64025;BME280;50266;57.446;26.936;2023-11-21T01:38:38;99261.41;;;-10.19;100.0
64025;BME280;50266;57.446;26.936;2023-11-21T01:39:38;99257.48;;;-10.2;100.0
64025;BME280;50266;57.446;26.936;2023-11-21T01:40:38;99258.55;;;-10.2;100.0
64025;BME280;50266;57.446;26.936;2023-11-21T01:41:38;99256.16;;;-10.19;100.0
64025;BME280;50266;57.446;26.936;2023-11-21T01:42:38;99256.2;;;-10.2;100.0
64025;BME280;50266;57.446;26.936;2023-11-21T01:43:38;99252.94;;;-10.19;100.0
64025;BME280;50266;57.446;26.936;2023-11-21T01:44:38;99248.79;;;-10.22;100.0
64025;BME280;50266;57.446;26.936;2023-11-21T01:45:38;99250.08;;;-10.21;100.0
64025;BME280;50266;57.446;26.936;2023-11-21T01:46:38;99242.2;;;-10.23;100.0
64025;BME280;50266;57.446;26.936;2023-11-21T01:47:38;99243.65;;;-10.22;100.0
64025;BME280;50266;57.446;26.936;2023-11-21T01:48:43;99246.05;;;-10.23;100.0
64025;BME280;50266;57.446;26.936;2023-11-21T01:49:40;99240.3;;;-10.25;100.0
64025;BME280;50266;57.446;26.936;2023-11-21T01:50:40;99238.92;;;-10.23;100.0
64025;BME280;50266;57.446;26.936;2023-11-21T01:51:41;99239.0;;;-10.21;100.0
64025;BME280;50266;57.446;26.936;2023-11-21T01:52:40;99237.53;;;-10.23;100.0
64025;BME280;50266;57.446;26.936;2023-11-21T01:53:40;99238.44;;;-10.23;100.0
64025;BME280;50266;57.446;26.936;2023-11-21T01:54:40;99239.92;;;-10.21;100.0
64025;BME280;50266;57.446;26.936;2023-11-21T01:55:40;99240.09;;;-10.2;100.0
64025;BME280;50266;57.446;26.936;2023-11-21T01:56:40;99237.88;;;-10.21;100.0
64025;BME280;50266;57.446;26.936;2023-11-21T01:57:41;99235.45;;;-10.23;100.0
64025;BME280;50266;57.446;26.936;2023-11-21T01:58:40;99231.02;;;-10.26;100.0
64025;BME280;50266;57.446;26.936;2023-11-21T01:59:40;99233.35;;;-10.23;100.0
64025;BME280;50266;57.446;26.936;2023-11-21T02:00:40;99229.03;;;-10.23;100.0
64025;BME280;50266;57.446;26.936;2023-11-21T02:01:40;99228.66;;;-10.22;100.0
64025;BME280;50266;57.446;26.936;2023-11-21T02:02:43;99234.45;;;-10.21;100.0
64025;BME280;50266;57.446;26.936;2023-11-21T02:03:41;99234.5;;;-10.21;100.0
64025;BME280;50266;57.446;26.936;2023-11-21T02:04:41;99233.16;;;-10.22;100.0
64025;BME280;50266;57.446;26.936;2023-11-21T02:05:41;99230.58;;;-10.22;100.0
64025;BME280;50266;57.446;26.936;2023-11-21T02:06:41;99230.92;;;-10.25;100.0
64025;BME280;50266;57.446;26.936;2023-11-21T02:07:41;99233.73;;;-10.27;100.0
64025;BME280;50266;57.446;26.936;2023-11-21T02:08:41;99235.76;;;-10.28;100.0
64025;BME280;50266;57.446;26.936;2023-11-21T02:09:41;99238.83;;;-10.26;100.0
64025;BME280;50266;57.446;26.936;2023-11-21T02:10:41;99235.23;;;-10.22;100.0
64025;BME280;50266;57.446;26.936;2023-11-21T02:11:41;99233.78;;;-10.19;100.0
64025;BME280;50266;57.446;26.936;2023-11-21T02:12:44;99233.7;;;-10.17;100.0
64025;BME280;50266;57.446;26.936;2023-11-21T02:13:41;99238.86;;;-10.14;100.0
64025;BME280;50266;57.446;26.936;2023-11-21T02:14:41;99239.25;;;-10.14;100.0
64025;BME280;50266;57.446;26.936;2023-11-21T02:15:41;99240.83;;;-10.15;100.0
64025;BME280;50266;57.446;26.936;2023-11-21T02:16:41;99239.23;;;-10.15;100.0
64025;BME280;50266;57.446;26.936;2023-11-21T02:17:42;99244.56;;;-10.16;100.0
64025;BME280;50266;57.446;26.936;2023-11-21T02:18:41;99242.36;;;-10.18;100.0
64025;BME280;50266;57.446;26.936;2023-11-21T02:19:41;99241.12;;;-10.19;100.0
64025;BME280;50266;57.446;26.936;2023-11-21T02:20:41;99237.41;;;-10.2;100.0
64025;BME280;50266;57.446;26.936;2023-11-21T02:21:41;99236.97;;;-10.21;100.0
64025;BME280;50266;57.446;26.936;2023-11-21T02:22:42;99233.98;;;-10.24;100.0
64025;BME280;50266;57.446;26.936;2023-11-21T02:23:42;99230.69;;;-10.22;100.0
64025;BME280;50266;57.446;26.936;2023-11-21T02:24:42;99239.2;;;-10.23;100.0
64025;BME280;50266;57.446;26.936;2023-11-21T02:25:42;99238.23;;;-10.23;100.0
64025;BME280;50266;57.446;26.936;2023-11-21T02:26:42;99238.3;;;-10.22;100.0
64025;BME280;50266;57.446;26.936;2023-11-21T02:27:42;99238.46;;;-10.22;100.0
64025;BME280;50266;57.446;26.936;2023-11-21T02:28:42;99236.34;;;-10.2;100.0
64025;BME280;50266;57.446;26.936;2023-11-21T02:29:42;99238.07;;;-10.19;100.0
64025;BME280;50266;57.446;26.936;2023-11-21T02:30:42;99240.61;;;-10.16;100.0
64025;BME280;50266;57.446;26.936;2023-11-21T02:31:42;99236.55;;;-10.16;100.0
64025;BME280;50266;57.446;26.936;2023-11-21T02:32:42;99235.62;;;-10.13;100.0
64025;BME280;50266;57.446;26.936;2023-11-21T02:33:45;99238.63;;;-10.12;100.0
64025;BME280;50266;57.446;26.936;2023-11-21T02:34:45;99236.3;;;-10.1;100.0
64025;BME280;50266;57.446;26.936;2023-11-21T02:35:45;99236.72;;;-10.11;100.0
64025;BME280;50266;57.446;26.936;2023-11-21T02:36:45;99237.22;;;-10.09;100.0
64025;BME280;50266;57.446;26.936;2023-11-21T02:37:45;99243.12;;;-10.08;100.0
64025;BME280;50266;57.446;26.936;2023-11-21T02:38:45;99241.25;;;-10.04;100.0
64025;BME280;50266;57.446;26.936;2023-11-21T02:39:45;99239.14;;;-10.01;100.0
64025;BME280;50266;57.446;26.936;2023-11-21T02:40:45;99234.96;;;-10.01;100.0
64025;BME280;50266;57.446;26.936;2023-11-21T02:41:45;99237.16;;;-10.01;100.0
64025;BME280;50266;57.446;26.936;2023-11-21T02:42:45;99241.78;;;-9.99;100.0
64025;BME280;50266;57.446;26.936;2023-11-21T02:43:45;99242.06;;;-9.98;100.0
64025;BME280;50266;57.446;26.936;2023-11-21T02:44:45;99239.91;;;-9.96;100.0
64025;BME280;50266;57.446;26.936;2023-11-21T02:45:45;99243.78;;;-9.95;100.0
64025;BME280;50266;57.446;26.936;2023-11-21T02:46:45;99246.7;;;-9.93;100.0
64025;BME280;50266;57.446;26.936;2023-11-21T02:47:45;99246.12;;;-9.93;100.0
64025;BME280;50266;57.446;26.936;2023-11-21T02:48:45;99249.28;;;-9.93;100.0
64025;BME280;50266;57.446;26.936;2023-11-21T02:49:45;99249.75;;;-9.93;100.0
64025;BME280;50266;57.446;26.936;2023-11-21T02:50:45;99247.99;;;-9.93;100.0
64025;BME280;50266;57.446;26.936;2023-11-21T02:51:45;99242.33;;;-9.92;100.0
64025;BME280;50266;57.446;26.936;2023-11-21T02:52:45;99238.95;;;-9.92;100.0
64025;BME280;50266;57.446;26.936;2023-11-21T02:53:45;99232.52;;;-9.92;100.0
64025;BME280;50266;57.446;26.936;2023-11-21T02:54:45;99230.01;;;-9.92;100.0
64025;BME280;50266;57.446;26.936;2023-11-21T02:55:45;99239.44;;;-9.92;100.0
64025;BME280;50266;57.446;26.936;2023-11-21T02:56:45;99248.67;;;-9.9;100.0
64025;BME280;50266;57.446;26.936;2023-11-21T02:57:45;99259.7;;;-9.89;100.0
64025;BME280;50266;57.446;26.936;2023-11-21T02:58:45;99278.61;;;-9.9;100.0
64025;BME280;50266;57.446;26.936;2023-11-21T02:59:45;99275.55;;;-9.91;100.0
64025;BME280;50266;57.446;26.936;2023-11-21T03:00:45;99271.56;;;-9.92;100.0
64025;BME280;50266;57.446;26.936;2023-11-21T03:01:45;99269.38;;;-9.92;100.0
64025;BME280;50266;57.446;26.936;2023-11-21T03:02:45;99268.39;;;-9.93;100.0
64025;BME280;50266;57.446;26.936;2023-11-21T03:03:45;99272.02;;;-9.94;100.0
64025;BME280;50266;57.446;26.936;2023-11-21T03:04:45;99274.47;;;-9.95;100.0
64025;BME280;50266;57.446;26.936;2023-11-21T03:05:45;99275.28;;;-9.94;100.0
64025;BME280;50266;57.446;26.936;2023-11-21T03:06:45;99270.17;;;-9.96;100.0
64025;BME280;50266;57.446;26.936;2023-11-21T03:07:45;99269.05;;;-9.98;100.0
64025;BME280;50266;57.446;26.936;2023-11-21T03:08:46;99269.81;;;-9.97;100.0
64025;BME280;50266;57.446;26.936;2023-11-21T03:09:45;99274.14;;;-9.99;100.0
64025;BME280;50266;57.446;26.936;2023-11-21T03:10:45;99268.66;;;-10.0;100.0
64025;BME280;50266;57.446;26.936;2023-11-21T03:11:45;99274.0;;;-10.01;100.0
64025;BME280;50266;57.446;26.936;2023-11-21T03:12:45;99273.73;;;-10.01;100.0
64025;BME280;50266;57.446;26.936;2023-11-21T03:13:45;99270.56;;;-10.02;100.0
64025;BME280;50266;57.446;26.936;2023-11-21T03:14:46;99270.86;;;-10.03;100.0
64025;BME280;50266;57.446;26.936;2023-11-21T03:15:45;99267.22;;;-10.03;100.0
64025;BME280;50266;57.446;26.936;2023-11-21T03:16:46;99266.67;;;-10.04;100.0
64025;BME280;50266;57.446;26.936;2023-11-21T03:17:45;99265.25;;;-10.02;100.0
64025;BME280;50266;57.446;26.936;2023-11-21T03:18:46;99264.22;;;-10.0;100.0
64025;BME280;50266;57.446;26.936;2023-11-21T03:19:45;99264.73;;;-9.97;100.0
64025;BME280;50266;57.446;26.936;2023-11-21T03:20:46;99269.05;;;-9.96;100.0
64025;BME280;50266;57.446;26.936;2023-11-21T03:21:46;99268.19;;;-9.92;100.0
64025;BME280;50266;57.446;26.936;2023-11-21T03:22:46;99271.94;;;-9.88;100.0
64025;BME280;50266;57.446;26.936;2023-11-21T03:23:46;99273.2;;;-9.84;100.0
64025;BME280;50266;57.446;26.936;2023-11-21T03:24:46;99271.5;;;-9.8;100.0
64025;BME280;50266;57.446;26.936;2023-11-21T03:25:46;99270.36;;;-9.77;100.0
64025;BME280;50266;57.446;26.936;2023-11-21T03:26:46;99269.45;;;-9.74;100.0
64025;BME280;50266;57.446;26.936;2023-11-21T03:27:46;99268.16;;;-9.7;100.0
64025;BME280;50266;57.446;26.936;2023-11-21T03:28:46;99268.78;;;-9.66;100.0
64025;BME280;50266;57.446;26.936;2023-11-21T03:29:46;99269.16;;;-9.61;100.0
64025;BME280;50266;57.446;26.936;2023-11-21T03:30:46;99268.55;;;-9.58;100.0
64025;BME280;50266;57.446;26.936;2023-11-21T03:31:46;99267.66;;;-9.54;100.0
64025;BME280;50266;57.446;26.936;2023-11-21T03:32:46;99271.08;;;-9.5;100.0
64025;BME280;50266;57.446;26.936;2023-11-21T03:33:46;99271.75;;;-9.48;100.0
64025;BME280;50266;57.446;26.936;2023-11-21T03:34:58;99270.59;;;-9.45;100.0
64025;BME280;50266;57.446;26.936;2023-11-21T03:35:46;99271.45;;;-9.41;100.0
64025;BME280;50266;57.446;26.936;2023-11-21T03:36:46;99269.48;;;-9.38;100.0
64025;BME280;50266;57.446;26.936;2023-11-21T03:37:46;99268.98;;;-9.35;100.0
64025;BME280;50266;57.446;26.936;2023-11-21T03:38:47;99267.97;;;-9.32;100.0
64025;BME280;50266;57.446;26.936;2023-11-21T03:39:46;99266.51;;;-9.27;100.0
64025;BME280;50266;57.446;26.936;2023-11-21T03:40:46;99270.95;;;-9.23;100.0
64025;BME280;50266;57.446;26.936;2023-11-21T03:41:46;99272.27;;;-9.2;100.0
64025;BME280;50266;57.446;26.936;2023-11-21T03:42:46;99273.31;;;-9.16;100.0
64025;BME280;50266;57.446;26.936;2023-11-21T03:43:46;99272.06;;;-9.13;100.0
64025;BME280;50266;57.446;26.936;2023-11-21T03:44:46;99273.94;;;-9.09;100.0
64025;BME280;50266;57.446;26.936;2023-11-21T03:45:46;99276.48;;;-9.07;100.0
64025;BME280;50266;57.446;26.936;2023-11-21T03:46:46;99278.66;;;-9.03;100.0
64025;BME280;50266;57.446;26.936;2023-11-21T03:47:46;99279.1;;;-9.02;100.0
64025;BME280;50266;57.446;26.936;2023-11-21T03:48:46;99281.12;;;-8.99;100.0
64025;BME280;50266;57.446;26.936;2023-11-21T03:49:46;99286.18;;;-8.97;100.0
64025;BME280;50266;57.446;26.936;2023-11-21T03:50:46;99282.6;;;-8.95;100.0
64025;BME280;50266;57.446;26.936;2023-11-21T03:51:47;99284.75;;;-8.91;100.0
64025;BME280;50266;57.446;26.936;2023-11-21T03:52:46;99280.47;;;-8.89;100.0
64025;BME280;50266;57.446;26.936;2023-11-21T03:53:47;99285.11;;;-8.86;100.0
64025;BME280;50266;57.446;26.936;2023-11-21T03:54:46;99285.73;;;-8.83;100.0
64025;BME280;50266;57.446;26.936;2023-11-21T03:55:46;99288.75;;;-8.81;100.0
64025;BME280;50266;57.446;26.936;2023-11-21T03:56:47;99287.41;;;-8.81;100.0
64025;BME280;50266;57.446;26.936;2023-11-21T03:57:47;99289.94;;;-8.8;100.0
64025;BME280;50266;57.446;26.936;2023-11-21T03:58:47;99291.91;;;-8.76;100.0
64025;BME280;50266;57.446;26.936;2023-11-21T03:59:47;99291.94;;;-8.72;100.0
64025;BME280;50266;57.446;26.936;2023-11-21T04:00:47;99292.36;;;-8.69;100.0
64025;BME280;50266;57.446;26.936;2023-11-21T04:01:47;99292.91;;;-8.68;100.0
64025;BME280;50266;57.446;26.936;2023-11-21T04:02:47;99294.59;;;-8.66;100.0
64025;BME280;50266;57.446;26.936;2023-11-21T04:03:47;99294.38;;;-8.65;100.0
64025;BME280;50266;57.446;26.936;2023-11-21T04:04:47;99292.84;;;-8.63;100.0
64025;BME280;50266;57.446;26.936;2023-11-21T04:05:47;99291.88;;;-8.62;100.0
64025;BME280;50266;57.446;26.936;2023-11-21T04:06:47;99300.27;;;-8.59;100.0
64025;BME280;50266;57.446;26.936;2023-11-21T04:07:47;99305.61;;;-8.56;100.0
64025;BME280;50266;57.446;26.936;2023-11-21T04:08:47;99302.5;;;-8.55;100.0
64025;BME280;50266;57.446;26.936;2023-11-21T04:09:47;99300.75;;;-8.53;100.0
64025;BME280;50266;57.446;26.936;2023-11-21T04:10:47;99305.05;;;-8.53;100.0
64025;BME280;50266;57.446;26.936;2023-11-21T04:11:47;99308.06;;;-8.51;100.0
64025;BME280;50266;57.446;26.936;2023-11-21T04:12:47;99311.91;;;-8.5;100.0
64025;BME280;50266;57.446;26.936;2023-11-21T04:13:47;99308.58;;;-8.5;100.0
64025;BME280;50266;57.446;26.936;2023-11-21T04:14:47;99308.97;;;-8.48;100.0
64025;BME280;50266;57.446;26.936;2023-11-21T04:15:47;99305.33;;;-8.46;100.0
64025;BME280;50266;57.446;26.936;2023-11-21T04:16:47;99306.25;;;-8.45;100.0
64025;BME280;50266;57.446;26.936;2023-11-21T04:17:47;99302.12;;;-8.45;100.0
64025;BME280;50266;57.446;26.936;2023-11-21T04:18:47;99302.34;;;-8.44;100.0
64025;BME280;50266;57.446;26.936;2023-11-21T04:19:47;99304.77;;;-8.42;100.0
64025;BME280;50266;57.446;26.936;2023-11-21T04:20:48;99305.48;;;-8.41;100.0
64025;BME280;50266;57.446;26.936;2023-11-21T04:21:47;99303.83;;;-8.39;100.0
64025;BME280;50266;57.446;26.936;2023-11-21T04:22:47;99304.05;;;-8.38;100.0
64025;BME280;50266;57.446;26.936;2023-11-21T04:23:47;99307.17;;;-8.37;100.0
64025;BME280;50266;57.446;26.936;2023-11-21T04:24:47;99309.81;;;-8.36;100.0
64025;BME280;50266;57.446;26.936;2023-11-21T04:25:47;99314.48;;;-8.35;100.0
64025;BME280;50266;57.446;26.936;2023-11-21T04:26:47;99311.0;;;-8.34;100.0
64025;BME280;50266;57.446;26.936;2023-11-21T04:27:48;99313.64;;;-8.33;100.0
64025;BME280;50266;57.446;26.936;2023-11-21T04:28:47;99313.59;;;-8.32;100.0
64025;BME280;50266;57.446;26.936;2023-11-21T04:29:47;99311.77;;;-8.29;100.0
64025;BME280;50266;57.446;26.936;2023-11-21T04:30:47;99317.8;;;-8.29;100.0
64025;BME280;50266;57.446;26.936;2023-11-21T04:31:48;99313.88;;;-8.28;100.0
64025;BME280;50266;57.446;26.936;2023-11-21T04:32:47;99316.55;;;-8.32;100.0
64025;BME280;50266;57.446;26.936;2023-11-21T04:33:48;99312.81;;;-8.37;100.0
64025;BME280;50266;57.446;26.936;2023-11-21T04:34:48;99318.56;;;-8.43;100.0
64025;BME280;50266;57.446;26.936;2023-11-21T04:35:48;99322.37;;;-8.44;100.0
64025;BME280;50266;57.446;26.936;2023-11-21T04:36:48;99317.28;;;-8.43;100.0
64025;BME280;50266;57.446;26.936;2023-11-21T04:37:48;99317.64;;;-8.44;100.0
64025;BME280;50266;57.446;26.936;2023-11-21T04:38:48;99317.26;;;-8.45;100.0
64025;BME280;50266;57.446;26.936;2023-11-21T04:39:48;99318.48;;;-8.47;100.0
64025;BME280;50266;57.446;26.936;2023-11-21T04:40:48;99317.27;;;-8.44;100.0
64025;BME280;50266;57.446;26.936;2023-11-21T04:41:48;99318.78;;;-8.42;100.0
64025;BME280;50266;57.446;26.936;2023-11-21T04:42:48;99315.49;;;-8.44;100.0
64025;BME280;50266;57.446;26.936;2023-11-21T04:43:48;99318.0;;;-8.46;100.0
64025;BME280;50266;57.446;26.936;2023-11-21T04:44:48;99322.17;;;-8.48;100.0
64025;BME280;50266;57.446;26.936;2023-11-21T04:45:48;99318.52;;;-8.5;100.0
64025;BME280;50266;57.446;26.936;2023-11-21T04:46:48;99319.0;;;-8.5;100.0
64025;BME280;50266;57.446;26.936;2023-11-21T04:47:48;99316.38;;;-8.49;100.0
64025;BME280;50266;57.446;26.936;2023-11-21T04:48:48;99312.95;;;-8.47;100.0
64025;BME280;50266;57.446;26.936;2023-11-21T04:49:48;99320.37;;;-8.46;100.0
64025;BME280;50266;57.446;26.936;2023-11-21T04:50:48;99321.61;;;-8.45;100.0
64025;BME280;50266;57.446;26.936;2023-11-21T04:51:48;99322.63;;;-8.44;100.0
64025;BME280;50266;57.446;26.936;2023-11-21T04:52:48;99313.08;;;-8.43;100.0
64025;BME280;50266;57.446;26.936;2023-11-21T04:53:48;99316.91;;;-8.41;100.0
64025;BME280;50266;57.446;26.936;2023-11-21T04:54:48;99316.93;;;-8.39;100.0
64025;BME280;50266;57.446;26.936;2023-11-21T04:55:48;99323.02;;;-8.37;100.0
64025;BME280;50266;57.446;26.936;2023-11-21T04:56:48;99325.81;;;-8.35;100.0
64025;BME280;50266;57.446;26.936;2023-11-21T04:57:48;99324.59;;;-8.34;100.0
64025;BME280;50266;57.446;26.936;2023-11-21T04:58:48;99325.34;;;-8.34;100.0
64025;BME280;50266;57.446;26.936;2023-11-21T04:59:48;99329.62;;;-8.35;100.0
64025;BME280;50266;57.446;26.936;2023-11-21T05:00:48;99333.29;;;-8.34;100.0
64025;BME280;50266;57.446;26.936;2023-11-21T05:01:48;99333.42;;;-8.31;100.0
64025;BME280;50266;57.446;26.936;2023-11-21T05:02:48;99331.48;;;-8.31;100.0
64025;BME280;50266;57.446;26.936;2023-11-21T05:03:48;99329.45;;;-8.28;100.0
64025;BME280;50266;57.446;26.936;2023-11-21T05:04:48;99332.76;;;-8.23;100.0
64025;BME280;50266;57.446;26.936;2023-11-21T05:05:48;99336.84;;;-8.24;100.0
64025;BME280;50266;57.446;26.936;2023-11-21T05:06:48;99337.03;;;-8.27;100.0
64025;BME280;50266;57.446;26.936;2023-11-21T05:07:48;99334.52;;;-8.35;100.0
64025;BME280;50266;57.446;26.936;2023-11-21T05:08:48;99333.64;;;-8.37;100.0
64025;BME280;50266;57.446;26.936;2023-11-21T05:09:48;99330.91;;;-8.35;100.0
64025;BME280;50266;57.446;26.936;2023-11-21T05:10:48;99337.2;;;-8.35;100.0
64025;BME280;50266;57.446;26.936;2023-11-21T05:11:48;99338.38;;;-8.35;100.0
64025;BME280;50266;57.446;26.936;2023-11-21T05:12:48;99335.27;;;-8.41;100.0